Time;durP1;ratioP1;P1;durP2;ratioP2;P2;SDS_P1;SDS_P2;PMS_P1;PMS_P2;Temp;Humidity;BMP_temperature;BMP_pressure;BME280_temperature;BME280_humidity;BME280_pressure;Samples;Min_cycle;Max_cycle;Signal;HPM_P1;HPM_P2
2021/08/26 00:00:58;;;;;;;6.18;2.50;;;;;;;16.71;67.23;101803.44;5064162;28;20021;-82
2021/08/26 00:06:14;;;;;;;7.97;3.28;;;;;;;16.83;66.92;101808.97;5099169;28;20402;-83
2021/08/26 00:08:39;;;;;;;9.68;2.90;;;;;;;16.88;67.39;101810.38;5099003;28;20549;-83
2021/08/26 00:11:05;;;;;;;10.95;2.72;;;;;;;16.85;68.02;101799.88;5099510;28;20066;-84
2021/08/26 00:13:32;;;;;;;9.68;3.13;;;;;;;16.73;69.21;101809.56;5064554;28;20031;-84
2021/08/26 00:15:59;;;;;;;9.10;3.00;;;;;;;16.83;69.16;101816.97;5081497;28;20032;-85
2021/08/26 00:18:25;;;;;;;13.68;3.45;;;;;;;16.58;70.02;101811.41;5099500;28;20035;-84
2021/08/26 00:20:53;;;;;;;15.38;4.25;;;;;;;16.58;70.49;101800.72;5099830;28;20020;-85
2021/08/26 00:23:20;;;;;;;14.02;3.25;;;;;;;16.77;70.16;101808.41;5080737;28;20069;-84
2021/08/26 00:25:45;;;;;;;12.77;3.50;;;;;;;16.53;70.64;101817.03;5081721;28;20024;-83
2021/08/26 00:28:11;;;;;;;13.40;3.80;;;;;;;16.71;69.88;101819.47;5081518;28;20046;-83
2021/08/26 00:30:36;;;;;;;12.13;3.75;;;;;;;16.91;69.42;101812.00;5099825;28;20024;-83
2021/08/26 00:33:01;;;;;;;15.25;3.67;;;;;;;16.76;69.60;101809.38;5081775;28;20032;-83
2021/08/26 00:35:27;;;;;;;16.35;4.15;;;;;;;16.41;70.64;101799.13;5088467;22;20054;-82
2021/08/26 00:37:52;;;;;;;17.85;4.35;;;;;;;16.81;69.60;101809.06;5097981;28;20101;-81
2021/08/26 00:40:19;;;;;;;15.07;4.50;;;;;;;16.72;69.75;101799.84;5062993;28;20044;-84
2021/08/26 00:42:44;;;;;;;14.30;4.57;;;;;;;16.37;68.77;101795.78;5065971;28;20027;-82
2021/08/26 00:45:11;;;;;;;14.32;4.30;;;;;;;16.60;68.40;101788.13;5083202;28;20020;-83
2021/08/26 00:47:37;;;;;;;14.70;4.80;;;;;;;16.48;69.01;101788.88;5100564;28;20441;-83
2021/08/26 00:50:03;;;;;;;10.55;4.25;;;;;;;16.56;68.52;101787.47;5083034;28;20051;-84
2021/08/26 00:52:32;;;;;;;15.25;4.18;;;;;;;16.44;69.05;101789.09;5082666;28;20398;-80
2021/08/26 00:54:58;;;;;;;16.77;4.35;;;;;;;16.78;68.11;101787.91;5101313;28;20028;-83
2021/08/26 00:57:24;;;;;;;14.25;4.70;;;;;;;16.76;67.40;101777.31;5100342;28;20057;-82
2021/08/26 00:59:49;;;;;;;14.35;4.30;;;;;;;16.58;67.85;101771.34;5100912;28;20481;-80
2021/08/26 01:02:31;;;;;;;18.15;4.28;;;;;;;16.40;68.54;101784.91;5065756;28;20051;-82
2021/08/26 01:05:07;;;;;;;15.05;4.32;;;;;;;16.08;68.84;101793.13;5100132;28;20051;-82
2021/08/26 01:07:47;;;;;;;15.90;4.13;;;;;;;16.13;69.20;101779.50;5101884;28;20035;-84
2021/08/26 01:10:15;;;;;;;17.60;4.00;;;;;;;16.20;68.85;101762.13;5083051;28;20031;-82
2021/08/26 01:12:44;;;;;;;17.92;3.58;;;;;;;16.41;68.34;101772.44;5099714;28;20062;-84
2021/08/26 01:15:10;;;;;;;17.75;4.75;;;;;;;16.34;68.46;101771.09;5099699;28;20363;-83
2021/08/26 01:17:35;;;;;;;11.77;4.03;;;;;;;16.24;68.52;101773.50;5100335;28;20028;-83
2021/08/26 01:20:06;;;;;;;14.43;4.43;;;;;;;16.34;68.09;101773.75;5081171;28;20021;-82
2021/08/26 01:22:33;;;;;;;13.13;4.10;;;;;;;16.30;68.10;101767.75;5064848;28;20458;-83
2021/08/26 01:25:20;;;;;;;22.90;4.60;;;;;;;16.22;68.39;101767.38;5081780;28;20081;-82
2021/08/26 01:28:04;;;;;;;13.88;4.15;;;;;;;16.46;67.76;101764.97;5082873;28;20024;-83
2021/08/26 01:30:37;;;;;;;15.18;4.20;;;;;;;16.56;67.24;101762.56;5064942;28;20039;-82
2021/08/26 01:33:03;;;;;;;15.38;3.45;;;;;;;16.23;67.12;101750.41;5099586;28;20020;-83
2021/08/26 01:35:28;;;;;;;13.23;3.95;;;;;;;16.22;66.32;101749.56;5081562;28;20107;-83
2021/08/26 01:37:54;;;;;;;17.25;4.05;;;;;;;16.22;65.54;101756.72;5081083;28;20482;-82
2021/08/26 01:40:34;;;;;;;12.93;3.90;;;;;;;16.28;65.86;101743.84;5081275;28;20354;-83
2021/08/26 01:43:11;;;;;;;10.68;3.30;;;;;;;16.27;65.48;101735.94;5064878;28;20055;-80
2021/08/26 01:45:38;;;;;;;13.88;3.70;;;;;;;16.52;65.63;101740.53;5098524;28;20168;-82
2021/08/26 01:48:03;;;;;;;12.48;3.40;;;;;;;16.35;65.35;101743.47;5080934;28;20035;-82
2021/08/26 01:50:29;;;;;;;15.70;3.60;;;;;;;16.31;65.35;101740.97;5099156;28;20028;-83
2021/08/26 01:52:55;;;;;;;14.10;3.72;;;;;;;16.58;64.61;101747.31;5047448;28;20017;-82
2021/08/26 01:55:21;;;;;;;9.75;3.58;;;;;;;16.35;65.25;101748.78;5099079;28;20069;-83
2021/08/26 01:57:48;;;;;;;11.50;3.33;;;;;;;16.51;64.90;101744.19;5098836;28;20020;-83
2021/08/26 02:00:14;;;;;;;11.48;3.10;;;;;;;16.65;64.55;101742.44;5098745;28;20031;-82
2021/08/26 02:02:39;;;;;;;11.25;3.50;;;;;;;16.67;64.76;101737.84;5063744;28;20016;-81
2021/08/26 02:05:06;;;;;;;11.10;3.33;;;;;;;16.72;64.77;101733.06;5081374;28;20043;-82
2021/08/26 02:07:32;;;;;;;13.00;4.03;;;;;;;16.34;65.74;101731.03;5080993;28;20028;-82
2021/08/26 02:09:57;;;;;;;10.45;4.03;;;;;;;16.42;66.03;101745.63;5097083;28;20037;-82
2021/08/26 02:12:23;;;;;;;16.77;4.25;;;;;;;16.54;65.82;101733.31;5098955;28;20020;-81
2021/08/26 02:14:49;;;;;;;14.85;3.88;;;;;;;16.47;65.97;101733.78;5098860;28;20020;-82
2021/08/26 02:17:15;;;;;;;14.23;3.47;;;;;;;16.30;65.83;101738.41;5098539;28;20032;-82
2021/08/26 02:19:42;;;;;;;13.25;3.65;;;;;;;16.49;65.68;101740.75;5099036;28;20450;-82
2021/08/26 02:22:10;;;;;;;11.95;3.08;;;;;;;16.33;65.33;101729.34;5082668;28;20039;-81
2021/08/26 02:24:37;;;;;;;11.70;2.58;;;;;;;16.28;65.57;101735.84;5084583;28;20054;-82
2021/08/26 02:27:03;;;;;;;14.05;3.15;;;;;;;16.42;64.61;101732.28;5102084;28;20084;-83
2021/08/26 02:29:29;;;;;;;15.70;3.20;;;;;;;16.20;64.77;101727.44;5102094;28;20468;-83
2021/08/26 02:31:55;;;;;;;13.25;2.45;;;;;;;16.49;63.80;101724.72;5102758;28;20107;-83
2021/08/26 02:34:21;;;;;;;12.55;2.75;;;;;;;16.35;63.90;101722.09;5102189;28;20032;-83
2021/08/26 02:36:46;;;;;;;12.27;3.00;;;;;;;16.51;63.87;101728.16;5103166;28;20035;-82
2021/08/26 02:39:20;;;;;;;10.32;2.38;;;;;;;16.18;64.38;101729.34;5102674;28;20030;-83
2021/08/26 02:41:46;;;;;;;11.05;2.60;;;;;;;16.24;64.19;101736.13;5102811;28;20066;-82
2021/08/26 02:44:12;;;;;;;13.43;2.40;;;;;;;16.60;63.49;101737.38;5101780;28;20032;-84
2021/08/26 02:46:38;;;;;;;10.25;2.42;;;;;;;16.35;64.02;101740.78;5084410;28;20022;-83
2021/08/26 02:49:06;;;;;;;13.77;2.92;;;;;;;16.33;63.81;101735.53;5100194;28;20036;-83
2021/08/26 02:51:32;;;;;;;7.28;2.33;;;;;;;16.26;63.75;101736.88;5084582;28;20085;-83
2021/08/26 02:53:58;;;;;;;11.07;2.55;;;;;;;16.11;64.30;101736.91;5084301;28;20031;-84
2021/08/26 02:56:25;;;;;;;9.35;2.30;;;;;;;16.15;64.34;101732.22;5084884;28;20023;-84
2021/08/26 02:58:50;;;;;;;11.35;2.40;;;;;;;16.10;64.64;101729.81;5051393;28;20032;-85
2021/08/26 03:01:15;;;;;;;11.32;2.55;;;;;;;16.26;64.32;101728.88;5102417;28;20110;-83
2021/08/26 03:03:41;;;;;;;13.82;2.30;;;;;;;15.93;64.71;101728.19;5102523;28;20028;-83
2021/08/26 03:06:08;;;;;;;11.23;2.90;;;;;;;16.21;64.03;101729.16;5102757;28;20024;-84
2021/08/26 03:08:37;;;;;;;7.38;2.17;;;;;;;16.12;64.07;101722.59;5085950;28;20100;-85
2021/08/26 03:11:04;;;;;;;12.05;2.22;;;;;;;16.33;63.22;101719.53;5084941;28;20108;-85
2021/08/26 03:13:29;;;;;;;9.70;2.15;;;;;;;16.41;62.43;101711.88;5065382;28;20059;-82
2021/08/26 03:15:55;;;;;;;12.27;2.42;;;;;;;16.46;62.14;101703.56;5104464;28;20028;-83
2021/08/26 03:18:24;;;;;;;8.75;2.05;;;;;;;16.64;61.47;101708.69;5104800;28;20032;-82
2021/08/26 03:20:49;;;;;;;8.40;2.30;;;;;;;16.51;61.27;101706.81;5103024;28;20367;-84
2021/08/26 03:23:16;;;;;;;11.30;2.20;;;;;;;16.46;61.24;101700.91;5084555;28;20058;-82
2021/08/26 03:25:44;;;;;;;15.30;2.83;;;;;;;16.55;61.28;101707.47;5084757;28;20031;-83
2021/08/26 03:28:09;;;;;;;9.98;2.40;;;;;;;16.38;61.73;101703.22;5103396;28;20032;-83
2021/08/26 03:30:37;;;;;;;5.63;1.90;;;;;;;16.45;61.80;101696.53;5111341;28;20040;-83
2021/08/26 03:33:04;;;;;;;8.90;2.30;;;;;;;16.18;62.55;101700.00;5110516;28;20058;-82
2021/08/26 03:35:29;;;;;;;13.00;2.60;;;;;;;16.40;62.18;101694.16;5110050;28;20451;-83
2021/08/26 03:37:57;;;;;;;10.73;2.40;;;;;;;16.36;62.68;101705.13;5102181;28;20105;-83
2021/08/26 03:40:25;;;;;;;7.38;1.88;;;;;;;16.50;62.41;101701.56;5084581;28;20527;-84
2021/08/26 03:42:51;;;;;;;10.13;2.25;;;;;;;16.36;62.88;101699.78;5083750;28;20043;-82
2021/08/26 03:45:16;;;;;;;10.40;2.47;;;;;;;16.66;62.22;101704.09;5093352;28;20103;-83
2021/08/26 03:47:42;;;;;;;13.88;2.33;;;;;;;16.42;63.40;101710.94;5066743;28;20055;-83
2021/08/26 03:50:07;;;;;;;11.90;2.58;;;;;;;16.36;64.24;101714.00;5066369;28;20066;-84
2021/08/26 03:52:33;;;;;;;14.65;2.25;;;;;;;16.55;63.72;101702.97;5083609;28;20103;-83
2021/08/26 03:54:59;;;;;;;11.60;2.60;;;;;;;16.33;64.62;101691.97;5100775;28;20063;-83
2021/08/26 03:57:24;;;;;;;11.90;2.90;;;;;;;16.24;65.02;101701.44;5083173;28;20433;-84
2021/08/26 03:59:51;;;;;;;8.25;2.05;;;;;;;16.20;65.87;101695.44;5101699;28;20032;-84
2021/08/26 04:02:17;;;;;;;10.95;2.15;;;;;;;16.44;65.23;101689.47;5083207;28;20062;-85
2021/08/26 04:04:42;;;;;;;9.90;2.53;;;;;;;16.49;65.00;101691.84;5082785;28;20032;-84
2021/08/26 04:07:09;;;;;;;7.75;2.35;;;;;;;16.44;65.40;101706.34;5100507;28;20044;-83
2021/08/26 04:09:38;;;;;;;14.95;2.63;;;;;;;16.28;66.15;101706.47;5100586;28;20164;-83
2021/08/26 04:12:04;;;;;;;11.35;2.28;;;;;;;16.19;66.55;101704.41;5083022;28;20032;-83
2021/08/26 04:14:29;;;;;;;8.75;2.63;;;;;;;16.36;66.24;101702.47;5081832;28;20032;-83
2021/08/26 04:16:55;;;;;;;10.13;2.10;;;;;;;16.21;66.72;101691.78;5083172;28;20028;-83
2021/08/26 04:19:22;;;;;;;12.50;2.50;;;;;;;16.36;66.26;101692.66;5100907;28;20034;-82
2021/08/26 04:21:47;;;;;;;8.77;1.80;;;;;;;16.46;65.92;101682.22;5079881;28;20094;-83
2021/08/26 04:24:13;;;;;;;8.88;1.80;;;;;;;16.46;65.96;101692.06;5082147;28;20131;-83
2021/08/26 04:26:40;;;;;;;9.02;2.40;;;;;;;16.37;65.52;101686.34;5066569;28;20021;-83
2021/08/26 04:29:05;;;;;;;10.32;2.20;;;;;;;16.36;65.44;101686.44;5083033;28;20093;-83
2021/08/26 04:31:31;;;;;;;7.97;2.05;;;;;;;16.27;65.06;101687.91;5100720;28;20024;-83
2021/08/26 04:33:56;;;;;;;9.02;1.90;;;;;;;16.29;65.11;101694.84;5081986;28;20045;-83
2021/08/26 04:36:22;;;;;;;6.80;1.90;;;;;;;16.14;65.76;101698.47;5068971;22;20049;-83
2021/08/26 04:38:56;;;;;;;4.72;1.63;;;;;;;16.39;65.24;101683.56;5058921;28;20544;-83
2021/08/26 04:41:22;;;;;;;11.18;2.22;;;;;;;16.37;64.66;101673.00;5060412;28;20029;-84
2021/08/26 04:43:47;;;;;;;12.32;2.22;;;;;;;16.18;65.10;101675.97;5059652;28;20041;-83
2021/08/26 04:46:13;;;;;;;6.68;1.83;;;;;;;16.17;65.06;101676.94;5041702;28;20048;-84
2021/08/26 04:48:40;;;;;;;8.35;2.00;;;;;;;16.10;65.16;101665.78;5058555;28;20052;-83
2021/08/26 04:51:06;;;;;;;10.57;2.22;;;;;;;16.03;65.42;101677.81;5060867;28;20027;-84
2021/08/26 04:53:33;;;;;;;9.05;2.03;;;;;;;16.19;65.48;101688.38;5058840;28;20420;-84
2021/08/26 04:55:58;;;;;;;7.45;1.85;;;;;;;16.33;65.33;101682.16;5042397;28;20529;-83
2021/08/26 04:58:25;;;;;;;6.93;2.17;;;;;;;16.36;65.52;101689.13;5058985;28;20486;-85
2021/08/26 05:00:52;;;;;;;10.48;2.00;;;;;;;16.27;66.22;101696.75;5060637;28;20088;-82
2021/08/26 05:03:18;;;;;;;6.80;1.75;;;;;;;16.11;67.73;101690.69;5058069;28;20444;-83
2021/08/26 05:05:44;;;;;;;6.60;2.05;;;;;;;15.57;69.40;101693.88;5059609;28;20050;-83
2021/08/26 05:08:09;;;;;;;10.00;2.20;;;;;;;15.49;70.45;101681.94;5041424;28;20383;-84
2021/08/26 05:10:39;;;;;;;11.85;2.17;;;;;;;15.61;69.16;101672.38;5058093;28;20180;-81
2021/08/26 05:13:08;;;;;;;7.25;2.13;;;;;;;15.47;69.42;101666.06;5057379;28;20033;-79
2021/08/26 05:15:37;;;;;;;10.57;1.95;;;;;;;15.63;68.78;101676.66;5057500;28;20021;-83
2021/08/26 05:18:03;;;;;;;9.63;2.45;;;;;;;15.69;68.66;101673.59;5058721;28;20029;-82
2021/08/26 05:20:29;;;;;;;9.63;2.08;;;;;;;15.66;68.47;101672.91;5058333;28;20560;-83
2021/08/26 05:22:57;;;;;;;10.13;2.38;;;;;;;15.78;68.88;101680.16;5057385;28;20025;-82
2021/08/26 05:25:23;;;;;;;12.75;2.38;;;;;;;15.70;69.14;101682.47;5043565;28;20051;-82
2021/08/26 05:27:48;;;;;;;11.20;2.63;;;;;;;15.85;69.46;101685.13;5060752;28;20053;-83
2021/08/26 05:30:15;;;;;;;8.55;1.90;;;;;;;15.91;68.77;101679.41;5060027;28;20028;-83
2021/08/26 05:32:41;;;;;;;10.13;2.72;;;;;;;15.79;69.33;101679.22;5055237;28;20310;-85
2021/08/26 05:35:07;;;;;;;9.13;2.42;;;;;;;16.05;68.72;101687.44;5052804;28;20060;-84
2021/08/26 05:37:32;;;;;;;6.45;2.15;;;;;;;16.02;68.24;101679.63;5034757;28;20542;-84
2021/08/26 05:39:57;;;;;;;9.85;2.35;;;;;;;15.91;67.30;101676.72;5052515;28;20082;-84
2021/08/26 05:42:23;;;;;;;8.88;2.00;;;;;;;16.26;66.31;101671.03;5051125;28;20029;-83
2021/08/26 05:44:49;;;;;;;6.55;1.92;;;;;;;16.43;66.11;101674.41;5052427;28;20451;-84
2021/08/26 05:47:14;;;;;;;6.32;1.88;;;;;;;16.54;66.00;101673.69;5052252;28;20021;-84
2021/08/26 05:49:39;;;;;;;7.10;2.00;;;;;;;16.49;64.60;101678.50;5052502;28;20455;-85
2021/08/26 05:52:05;;;;;;;9.27;1.80;;;;;;;16.43;63.26;101677.94;5052627;28;20356;-84
2021/08/26 05:54:30;;;;;;;7.00;1.63;;;;;;;16.29;63.65;101683.28;5050989;28;20013;-84
2021/08/26 05:56:58;;;;;;;7.97;1.85;;;;;;;16.33;63.97;101692.84;5054011;28;20025;-83
2021/08/26 05:59:24;;;;;;;7.55;1.77;;;;;;;16.15;67.12;101711.72;5056046;28;20028;-84
2021/08/26 06:01:49;;;;;;;6.82;1.73;;;;;;;15.76;70.11;101705.22;5054790;28;20016;-84
2021/08/26 06:04:15;;;;;;;5.35;1.40;;;;;;;15.35;71.31;101704.97;5054596;28;20033;-83
2021/08/26 06:06:40;;;;;;;7.28;1.80;;;;;;;15.43;71.04;101701.84;5056070;28;20102;-84
2021/08/26 06:09:06;;;;;;;3.40;1.33;;;;;;;15.65;69.74;101692.53;5055111;28;20033;-83
2021/08/26 06:11:31;;;;;;;5.55;1.02;;;;;;;15.59;69.57;101693.78;5056169;28;20032;-83
2021/08/26 06:13:57;;;;;;;5.05;1.20;;;;;;;15.74;69.30;101680.44;5056346;28;20051;-85
2021/08/26 06:16:22;;;;;;;5.32;1.27;;;;;;;16.06;68.38;101681.16;5054907;28;20414;-84
2021/08/26 06:18:48;;;;;;;5.50;1.23;;;;;;;15.95;68.24;101683.59;5056009;28;20478;-84
2021/08/26 06:21:15;;;;;;;6.10;1.38;;;;;;;16.01;68.53;101674.38;5055948;28;20498;-84
2021/08/26 06:23:40;;;;;;;5.22;1.60;;;;;;;15.91;68.92;101682.06;5055816;28;20021;-83
2021/08/26 06:26:06;;;;;;;4.88;1.67;;;;;;;16.03;68.98;101677.81;5053026;28;20025;-83
2021/08/26 06:28:31;;;;;;;4.93;1.60;;;;;;;16.50;67.63;101681.06;5055819;28;20032;-82
2021/08/26 06:30:57;;;;;;;5.57;1.63;;;;;;;16.60;67.54;101680.47;5056598;28;20031;-83
2021/08/26 06:33:22;;;;;;;5.65;1.40;;;;;;;16.83;67.13;101686.09;5056897;28;20013;-81
2021/08/26 06:35:47;;;;;;;6.25;1.38;;;;;;;16.84;67.16;101677.13;5069126;28;20056;-82
2021/08/26 06:38:13;;;;;;;5.13;1.42;;;;;;;16.85;66.42;101685.03;5076774;28;20043;-83
2021/08/26 06:40:38;;;;;;;8.48;1.67;;;;;;;16.60;66.80;101683.16;5074866;28;20455;-84
2021/08/26 06:43:04;;;;;;;8.57;1.90;;;;;;;17.05;65.47;101689.03;5074927;28;20082;-83
2021/08/26 06:45:29;;;;;;;3.88;1.13;;;;;;;16.83;66.24;101691.44;5074692;28;20024;-82
2021/08/26 06:47:55;;;;;;;7.57;1.50;;;;;;;16.61;67.48;101693.72;5074493;28;20029;-83
2021/08/26 06:50:20;;;;;;;4.30;1.60;;;;;;;16.83;67.65;101688.78;5074608;28;20025;-83
2021/08/26 06:52:45;;;;;;;8.15;1.60;;;;;;;16.62;68.59;101695.44;5074722;28;20033;-84
2021/08/26 06:55:11;;;;;;;8.77;2.10;;;;;;;16.52;69.49;101700.50;5074762;28;20046;-83
2021/08/26 06:57:36;;;;;;;6.55;1.50;;;;;;;16.87;69.29;101708.97;5074880;28;20029;-83
2021/08/26 07:00:04;;;;;;;5.07;2.00;;;;;;;16.01;74.14;101711.72;5074497;28;20032;-84
2021/08/26 07:02:29;;;;;;;10.63;2.03;;;;;;;15.56;77.36;101715.31;5056129;28;20032;-83
2021/08/26 07:04:54;;;;;;;9.07;2.30;;;;;;;15.17;79.01;101706.94;5074585;28;20094;-88
2021/08/26 07:07:20;;;;;;;8.65;1.88;;;;;;;15.30;78.79;101702.59;5023345;28;20032;-85
2021/08/26 07:09:45;;;;;;;7.00;2.10;;;;;;;15.63;78.16;101686.44;5074821;28;20032;-85
2021/08/26 07:12:11;;;;;;;7.78;2.08;;;;;;;15.57;78.03;101691.22;5058195;28;20024;-81
2021/08/26 07:14:36;;;;;;;8.90;2.13;;;;;;;15.79;77.05;101687.22;5092642;28;20203;-84
2021/08/26 07:17:02;;;;;;;7.80;2.38;;;;;;;15.92;76.35;101686.47;5092273;28;20067;-84
2021/08/26 07:19:27;;;;;;;7.90;2.17;;;;;;;16.00;75.92;101686.88;5093700;28;20025;-83
2021/08/26 07:21:53;;;;;;;10.27;2.25;;;;;;;16.03;75.23;101684.03;5065875;28;20103;-83
2021/08/26 07:24:18;;;;;;;7.80;2.08;;;;;;;16.37;74.15;101689.00;5074974;28;20024;-82
2021/08/26 07:26:44;;;;;;;8.10;1.92;;;;;;;16.22;73.80;101685.53;5056202;28;20036;-81
2021/08/26 07:29:09;;;;;;;9.80;2.38;;;;;;;16.41;73.21;101673.66;5073726;28;20044;-81
2021/08/26 07:31:35;;;;;;;8.52;2.28;;;;;;;16.71;72.09;101669.09;5055794;28;20038;-84
2021/08/26 07:34:00;;;;;;;6.90;2.03;;;;;;;16.67;71.84;101674.63;5074345;28;20063;-83
2021/08/26 07:36:26;;;;;;;8.68;1.90;;;;;;;16.51;72.26;101676.56;5073901;28;20442;-83
2021/08/26 07:38:51;;;;;;;9.98;1.95;;;;;;;16.68;71.70;101671.00;5055865;28;20046;-80
2021/08/26 07:41:17;;;;;;;4.95;1.95;;;;;;;16.87;71.29;101679.59;5073668;28;20024;-82
2021/08/26 07:43:43;;;;;;;12.13;2.42;;;;;;;16.67;71.93;101679.09;5073430;28;20032;-82
2021/08/26 07:46:08;;;;;;;8.20;2.33;;;;;;;16.80;71.76;101680.00;5073576;28;20170;-82
2021/08/26 07:48:34;;;;;;;13.00;2.50;;;;;;;16.31;72.41;101671.59;5071182;28;20481;-81
2021/08/26 07:51:03;;;;;;;9.85;2.60;;;;;;;16.32;73.65;101683.09;5073622;28;20103;-82
2021/08/26 07:53:32;;;;;;;9.70;2.72;;;;;;;16.25;73.26;101701.34;5073603;28;20020;-84
2021/08/26 07:55:58;;;;;;;7.10;2.40;;;;;;;16.01;74.82;101696.59;5073775;28;20017;-84
2021/08/26 07:58:24;;;;;;;10.10;3.05;;;;;;;15.86;75.67;101692.19;5073869;28;20040;-85
2021/08/26 08:00:49;;;;;;;7.38;2.20;;;;;;;15.97;75.03;101687.03;5072328;28;20032;-85
2021/08/26 08:03:15;;;;;;;8.27;2.88;;;;;;;16.05;75.13;101683.94;5054690;28;20119;-83
2021/08/26 08:05:40;;;;;;;9.05;2.67;;;;;;;16.39;73.19;101680.91;5073393;28;20028;-83
2021/08/26 08:08:06;;;;;;;5.22;2.17;;;;;;;16.54;72.47;101671.91;5055285;28;20443;-84
2021/08/26 08:10:31;;;;;;;8.88;2.20;;;;;;;16.87;70.70;101674.25;5072874;28;20433;-83
2021/08/26 08:12:56;;;;;;;11.38;2.55;;;;;;;16.97;70.25;101667.34;5055052;28;20433;-83
2021/08/26 08:15:22;;;;;;;5.57;2.28;;;;;;;17.03;69.64;101674.94;5072634;28;20108;-84
2021/08/26 08:17:47;;;;;;;9.77;2.58;;;;;;;17.28;68.11;101662.63;5072527;28;20024;-83
2021/08/26 08:20:13;;;;;;;10.75;2.50;;;;;;;17.32;68.11;101673.94;5072244;28;20066;-83
2021/08/26 08:22:38;;;;;;;10.43;2.75;;;;;;;17.90;67.21;101675.34;5073740;28;20399;-89
2021/08/26 08:25:05;;;;;;;9.75;2.55;;;;;;;18.24;65.70;101678.28;5072904;28;20029;-84
2021/08/26 08:27:30;;;;;;;13.98;3.45;;;;;;;18.09;66.45;101669.50;5073020;28;20497;-83
2021/08/26 08:29:56;;;;;;;14.00;3.38;;;;;;;18.65;65.51;101676.19;5072803;28;20033;-84
2021/08/26 08:32:21;;;;;;;10.35;2.88;;;;;;;18.20;65.98;101679.47;5072676;28;20536;-84
2021/08/26 08:34:47;;;;;;;10.93;3.25;;;;;;;18.33;66.03;101675.88;5084476;22;20052;-85
2021/08/26 08:37:12;;;;;;;12.52;3.20;;;;;;;18.46;64.98;101676.72;5073551;28;20142;-87
2021/08/26 08:39:38;;;;;;;11.75;3.17;;;;;;;18.39;64.05;101668.28;5074431;28;20451;-85
2021/08/26 08:42:03;;;;;;;11.57;3.38;;;;;;;18.63;63.98;101670.09;5092584;28;20024;-84
2021/08/26 08:44:28;;;;;;;9.05;2.92;;;;;;;18.90;61.92;101668.16;5074417;28;20028;-86
2021/08/26 08:46:58;;;;;;;12.60;3.40;;;;;;;18.36;63.48;101662.28;5073915;28;20024;-86
2021/08/26 08:49:23;;;;;;;12.95;3.15;;;;;;;18.57;62.51;101667.88;5093198;28;20032;-84
2021/08/26 08:51:50;;;;;;;10.60;2.80;;;;;;;18.31;63.09;101662.63;5079615;28;20026;-81
2021/08/26 08:54:16;;;;;;;11.60;3.00;;;;;;;18.41;62.31;101671.69;5094559;28;20415;-81
2021/08/26 08:56:41;;;;;;;10.27;2.47;;;;;;;18.68;60.82;101676.00;5075292;28;20070;-81
2021/08/26 08:59:07;;;;;;;9.73;3.10;;;;;;;18.62;60.26;101676.41;5093065;28;20024;-81
2021/08/26 09:01:32;;;;;;;7.63;2.80;;;;;;;18.91;59.92;101675.22;5092090;28;20111;-82
2021/08/26 09:03:57;;;;;;;7.72;2.83;;;;;;;18.57;59.71;101675.06;5091644;28;20362;-83
2021/08/26 09:06:36;;;;;;;12.27;3.00;;;;;;;18.76;59.37;101674.56;5091888;28;20039;-84
2021/08/26 09:09:03;;;;;;;9.07;2.92;;;;;;;18.98;58.76;101679.16;5058810;28;20032;-82
2021/08/26 09:11:29;;;;;;;9.50;3.25;;;;;;;18.64;59.00;101685.19;5091864;28;20024;-82
2021/08/26 09:13:54;;;;;;;8.90;3.00;;;;;;;18.84;59.86;101672.16;5074277;28;20035;-82
2021/08/26 09:16:43;;;;;;;13.43;3.55;;;;;;;18.60;60.82;101678.38;5074147;28;20378;-84
2021/08/26 09:19:16;;;;;;;11.93;3.63;;;;;;;18.28;61.79;101674.41;5072263;28;20024;-84
2021/08/26 09:21:42;;;;;;;10.80;3.28;;;;;;;18.38;61.58;101677.28;5054355;28;20375;-86
2021/08/26 09:24:07;;;;;;;16.83;3.47;;;;;;;18.59;61.25;101670.44;5071708;28;20086;-86
2021/08/26 09:26:32;;;;;;;13.70;3.15;;;;;;;18.68;61.51;101676.00;5071829;28;20032;-86
2021/08/26 09:29:02;;;;;;;15.10;3.90;;;;;;;17.97;63.66;101670.38;5071719;28;20028;-82
2021/08/26 09:31:29;;;;;;;12.88;4.05;;;;;;;17.71;65.46;101678.44;5075221;28;20043;-82
2021/08/26 09:34:01;;;;;;;15.05;4.10;;;;;;;17.93;66.68;101677.78;5091252;28;20039;-82
2021/08/26 09:36:31;;;;;;;15.98;4.10;;;;;;;17.84;67.29;101679.28;5091270;28;20132;-83
2021/08/26 09:39:08;;;;;;;12.15;3.53;;;;;;;17.87;67.65;101684.41;5091355;28;20036;-81
2021/08/26 09:41:37;;;;;;;14.50;4.20;;;;;;;17.92;67.04;101681.41;5091815;28;20030;-81
2021/08/26 09:44:08;;;;;;;14.45;3.80;;;;;;;18.00;67.03;101679.06;5091700;28;20474;-81
2021/08/26 09:46:34;;;;;;;13.40;4.28;;;;;;;18.35;65.30;101684.66;5091979;28;20024;-83
2021/08/26 09:49:07;;;;;;;15.35;4.18;;;;;;;18.61;64.08;101687.25;5090782;28;20039;-83
2021/08/26 09:51:32;;;;;;;15.05;4.00;;;;;;;18.86;64.08;101672.03;5091804;28;20074;-82
2021/08/26 09:53:59;;;;;;;13.43;4.07;;;;;;;18.72;63.30;101675.75;5091998;28;20397;-82
2021/08/26 09:56:24;;;;;;;14.63;3.90;;;;;;;18.86;63.26;101669.38;5091714;28;20027;-83
2021/08/26 09:58:54;;;;;;;21.08;4.35;;;;;;;19.06;62.79;101673.22;5091605;28;20020;-83
2021/08/26 10:01:23;;;;;;;14.18;4.40;;;;;;;18.72;62.49;101676.59;5091674;28;20039;-83
2021/08/26 10:03:50;;;;;;;11.95;3.97;;;;;;;18.95;61.48;101678.53;5091955;28;20034;-83
2021/08/26 10:06:15;;;;;;;15.50;4.20;;;;;;;18.70;61.86;101672.31;5090401;28;20032;-82
2021/08/26 10:08:46;;;;;;;12.25;4.20;;;;;;;19.16;60.98;101673.38;5091702;28;20097;-84
2021/08/26 10:11:14;;;;;;;14.48;3.83;;;;;;;18.86;61.95;101678.22;5073688;28;20028;-82
2021/08/26 10:13:39;;;;;;;13.13;4.05;;;;;;;18.43;62.81;101682.31;5073807;28;20020;-82
2021/08/26 10:16:04;;;;;;;11.52;3.78;;;;;;;18.59;63.17;101690.03;5073699;28;20034;-83
2021/08/26 10:18:30;;;;;;;11.85;3.33;;;;;;;18.02;64.74;101679.81;5091588;28;20021;-85
2021/08/26 10:20:56;;;;;;;10.38;2.97;;;;;;;18.11;64.23;101682.75;5091491;28;20028;-83
2021/08/26 10:23:21;;;;;;;11.55;3.08;;;;;;;18.28;62.77;101679.75;5091441;28;20031;-81
2021/08/26 10:25:47;;;;;;;13.45;3.17;;;;;;;18.38;61.79;101677.28;5073329;28;20071;-82
2021/08/26 10:28:12;;;;;;;12.68;3.25;;;;;;;18.43;62.20;101682.31;5071798;28;20462;-82
2021/08/26 10:30:41;;;;;;;10.45;3.08;;;;;;;18.57;62.24;101678.59;5091536;28;20028;-82
2021/08/26 10:33:10;;;;;;;11.48;3.35;;;;;;;19.14;60.48;101681.53;5091898;28;20070;-82
2021/08/26 10:35:50;;;;;;;14.70;3.65;;;;;;;19.16;60.35;101684.97;5091420;28;20036;-81
2021/08/26 10:38:28;;;;;;;15.13;3.25;;;;;;;19.25;60.29;101680.69;5092248;28;20127;-82
2021/08/26 10:40:57;;;;;;;9.35;2.70;;;;;;;19.88;58.52;101675.88;5090631;28;20529;-82
2021/08/26 10:43:36;;;;;;;9.10;2.65;;;;;;;19.86;57.28;101681.38;5093321;28;20032;-81
2021/08/26 10:46:03;;;;;;;10.05;2.60;;;;;;;20.18;56.06;101677.13;5095619;28;20111;-82
2021/08/26 10:48:28;;;;;;;8.25;2.50;;;;;;;20.04;55.28;101678.22;5081544;28;20463;-82
2021/08/26 10:51:17;;;;;;;10.63;2.97;;;;;;;19.63;56.51;101683.19;5073607;28;20035;-82
2021/08/26 10:53:44;;;;;;;13.25;3.42;;;;;;;19.57;57.11;101676.50;5074919;28;20124;-83
2021/08/26 10:56:26;;;;;;;9.15;2.42;;;;;;;19.76;56.38;101678.59;5074804;28;20471;-85
2021/08/26 10:58:56;;;;;;;11.37;2.87;;;;;;;19.92;56.06;101680.06;5090948;28;20419;-85
2021/08/26 11:01:32;;;;;;;9.18;2.70;;;;;;;19.80;56.04;101677.34;5094991;28;20028;-84
2021/08/26 11:04:30;;;;;;;16.10;3.83;;;;;;;19.46;57.89;101676.47;5094479;28;20081;-84
2021/08/26 11:06:57;;;;;;;13.43;3.40;;;;;;;19.86;56.81;101686.75;4993261;28;20067;-87
2021/08/26 11:09:24;;;;;;;17.27;3.38;;;;;;;19.47;57.20;101675.53;4993763;28;20089;-83
2021/08/26 11:11:57;;;;;;;11.88;3.08;;;;;;;19.73;57.03;101680.66;4992911;28;20050;-84
2021/08/26 11:14:26;;;;;;;;;;;;;;;19.77;57.91;101684.78;5012889;28;20042;-85
2021/08/26 11:17:05;;;;;;;16.90;3.65;;;;;;;19.29;58.29;101686.69;5012966;28;19920;-83
2021/08/26 11:19:34;;;;;;;13.00;3.40;;;;;;;18.95;63.60;101697.28;4993101;28;20046;-84
2021/08/26 11:22:00;;;;;;;15.10;4.10;;;;;;;18.06;68.44;101705.38;5002973;28;20033;-83
2021/08/26 11:24:27;;;;;;;16.98;4.97;;;;;;;17.92;69.64;101698.34;5012299;28;20061;-83